createdAt,value
2019-02-14T00:00:22.738Z,59.90
2019-02-14T00:02:25.673Z,59.90
2019-02-14T00:04:28.622Z,60.00
2019-02-14T00:06:32.326Z,60.20
2019-02-14T00:08:36.466Z,60.30
2019-02-14T00:10:39.396Z,60.20
2019-02-14T00:12:42.342Z,60.20
2019-02-14T00:14:45.302Z,60.30
2019-02-14T00:16:48.242Z,60.30
2019-02-14T00:18:51.177Z,60.30
2019-02-14T00:20:54.230Z,60.40
2019-02-14T00:22:57.927Z,60.70
2019-02-14T00:25:01.015Z,60.60
2019-02-14T00:27:04.753Z,60.80
2019-02-14T00:29:07.681Z,60.70
2019-02-14T00:31:11.143Z,60.80
2019-02-14T00:33:14.065Z,60.70
2019-02-14T00:35:24.863Z,60.80
2019-02-14T00:37:22.009Z,60.90
2019-02-14T00:39:24.935Z,60.80
2019-02-14T00:41:27.896Z,60.90
2019-02-14T00:43:30.951Z,60.90
2019-02-14T00:45:34.750Z,61.00
2019-02-14T00:47:36.848Z,61.10
2019-02-14T00:49:39.782Z,61.20
2019-02-14T00:51:43.494Z,61.20
2019-02-14T00:53:47.216Z,61.20
2019-02-14T00:55:50.145Z,61.20
2019-02-14T00:57:54.405Z,61.40
2019-02-14T00:59:57.373Z,61.30
2019-02-14T01:02:00.295Z,61.30
2019-02-14T01:04:03.223Z,61.30
2019-02-14T01:06:06.228Z,61.30
2019-02-14T01:08:09.152Z,61.40
2019-02-14T01:10:12.172Z,61.40
2019-02-14T01:12:15.904Z,61.60
2019-02-14T01:14:18.828Z,61.50
2019-02-14T01:16:21.841Z,61.60
2019-02-14T01:18:25.557Z,61.70
2019-02-14T01:20:28.481Z,61.60
2019-02-14T01:22:31.504Z,61.70
2019-02-14T01:24:35.229Z,61.80
2019-02-14T01:26:38.196Z,61.70
2019-02-14T01:28:41.176Z,61.80
2019-02-14T01:30:44.885Z,61.80
2019-02-14T01:32:47.826Z,61.80
2019-02-14T01:34:50.762Z,61.70
2019-02-14T01:36:54.521Z,61.90
2019-02-14T01:38:57.447Z,61.90
2019-02-14T01:41:00.373Z,61.90
2019-02-14T01:43:03.340Z,62.00
2019-02-14T01:45:06.411Z,62.00
2019-02-14T01:47:09.896Z,62.10
2019-02-14T01:49:12.817Z,62.10
2019-02-14T01:51:15.827Z,62.10
2019-02-14T01:53:19.545Z,62.20
2019-02-14T01:55:22.463Z,62.10
2019-02-14T01:57:25.493Z,62.10
2019-02-14T01:59:29.209Z,62.40
2019-02-14T02:01:32.997Z,62.30
2019-02-14T02:03:36.663Z,62.40
2019-02-14T02:05:39.603Z,62.30
2019-02-14T02:07:42.515Z,62.40
2019-02-14T02:09:45.562Z,62.40
2019-02-14T02:11:48.495Z,62.40
2019-02-14T02:13:51.507Z,62.40
2019-02-14T02:15:55.181Z,62.60
2019-02-14T02:17:58.112Z,62.50
2019-02-14T02:20:01.789Z,62.60
2019-02-14T02:22:05.466Z,62.60
2019-02-14T02:24:08.901Z,62.60
2019-02-14T02:26:11.968Z,62.60
2019-02-14T02:28:15.646Z,63.60
2019-02-14T02:30:18.576Z,62.80
2019-02-14T02:32:21.490Z,62.80
2019-02-14T02:34:24.410Z,62.80
2019-02-14T02:36:28.221Z,63.60
2019-02-14T02:38:31.132Z,62.80
2019-02-14T02:40:34.067Z,62.80
2019-02-14T02:42:37.013Z,62.90
2019-02-14T02:44:39.915Z,62.90
2019-02-14T02:46:42.925Z,62.90
2019-02-14T02:48:46.627Z,63.00
2019-02-14T02:50:50.295Z,63.10
2019-02-14T02:52:54.035Z,63.10
2019-02-14T02:54:56.954Z,63.00
2019-02-14T02:56:59.866Z,63.00
2019-02-14T02:59:02.794Z,63.00
2019-02-14T03:01:05.722Z,63.10
2019-02-14T03:03:08.654Z,63.10
2019-02-14T03:05:11.594Z,63.20
2019-02-14T03:07:14.796Z,63.10
2019-02-14T03:09:18.472Z,63.30
2019-02-14T03:11:21.406Z,63.10
2019-02-14T03:13:24.382Z,63.30
2019-02-14T03:15:27.349Z,63.30
2019-02-14T03:17:31.178Z,63.40
2019-02-14T03:19:34.086Z,63.20
2019-02-14T03:21:36.998Z,63.30
2019-02-14T03:23:40.711Z,63.30
2019-02-14T03:25:44.383Z,63.40
2019-02-14T03:27:47.319Z,63.40
2019-02-14T03:29:50.231Z,63.50
2019-02-14T03:31:53.139Z,63.50
2019-02-14T03:33:56.074Z,63.40
2019-02-14T03:35:58.979Z,63.50
2019-02-14T03:38:01.888Z,63.50
2019-02-14T03:40:05.751Z,63.50
2019-02-14T03:42:08.650Z,63.50
2019-02-14T03:44:11.568Z,63.60
2019-02-14T03:46:15.265Z,63.70
2019-02-14T03:48:18.234Z,63.60
2019-02-14T03:50:22.379Z,63.80
2019-02-14T03:52:25.294Z,63.70
2019-02-14T03:54:28.203Z,63.70
2019-02-14T03:56:31.134Z,63.80
2019-02-14T03:58:34.043Z,63.80
2019-02-14T04:00:36.970Z,63.70
2019-02-14T04:02:40.688Z,63.90
2019-02-14T04:04:43.600Z,63.80
2019-02-14T04:06:46.635Z,63.80
2019-02-14T04:08:50.438Z,64.00
2019-02-14T04:10:54.099Z,64.00
2019-02-14T04:12:57.120Z,64.70
2019-02-14T04:15:00.820Z,63.90
2019-02-14T04:17:04.495Z,64.00
2019-02-14T04:19:07.423Z,64.00
2019-02-14T04:21:10.323Z,63.90
2019-02-14T04:23:13.233Z,64.00
2019-02-14T04:25:16.367Z,64.00
2019-02-14T04:27:19.278Z,64.10
2019-02-14T04:29:22.191Z,64.10
2019-02-14T04:31:25.114Z,64.10
2019-02-14T04:33:28.035Z,64.20
2019-02-14T04:35:30.943Z,64.20
2019-02-14T04:37:34.003Z,64.20
2019-02-14T04:39:36.921Z,64.30
2019-02-14T04:41:40.695Z,64.30
2019-02-14T04:43:45.151Z,64.40
2019-02-14T04:45:48.831Z,64.40
2019-02-14T04:47:51.975Z,64.30
2019-02-14T04:49:54.883Z,64.30
2019-02-14T04:51:57.895Z,64.40
2019-02-14T04:54:01.595Z,64.50
2019-02-14T04:56:05.384Z,64.50
2019-02-14T04:58:08.314Z,64.30
2019-02-14T05:00:12.110Z,64.40
2019-02-14T05:02:15.023Z,64.40
2019-02-14T05:04:17.972Z,64.50
2019-02-14T05:06:20.908Z,64.50
2019-02-14T05:08:23.834Z,64.60
2019-02-14T05:10:26.765Z,64.70
2019-02-14T05:12:29.671Z,64.70
2019-02-14T05:14:33.342Z,64.80
2019-02-14T05:16:36.306Z,64.60
2019-02-14T05:18:39.279Z,64.80
2019-02-14T05:20:42.320Z,64.80
2019-02-14T05:22:45.990Z,64.90
2019-02-14T05:24:49.003Z,64.80
2019-02-14T05:26:53.448Z,64.80
2019-02-14T05:28:56.358Z,64.80
2019-02-14T05:30:59.275Z,64.80
2019-02-14T05:33:02.985Z,64.90
2019-02-14T05:35:06.655Z,64.80
2019-02-14T05:37:09.672Z,64.70
2019-02-14T05:39:13.469Z,65.00
2019-02-14T05:41:17.138Z,65.00
2019-02-14T05:43:20.051Z,64.80
2019-02-14T05:45:23.750Z,65.00
2019-02-14T05:47:26.987Z,65.00
2019-02-14T05:49:30.133Z,64.90
2019-02-14T05:51:33.835Z,64.30
2019-02-14T05:53:36.758Z,64.30
2019-02-14T05:55:39.790Z,64.50
2019-02-14T05:57:43.482Z,64.80
2019-02-14T05:59:47.154Z,64.90
2019-02-14T06:01:50.062Z,64.90
2019-02-14T06:03:53.757Z,65.20
2019-02-14T06:05:56.686Z,65.10
2019-02-14T06:07:59.628Z,65.20
2019-02-14T06:10:02.606Z,65.30
2019-02-14T06:12:06.302Z,65.30
2019-02-14T06:14:10.746Z,65.30
2019-02-14T06:16:13.664Z,65.30
2019-02-14T06:18:16.626Z,65.40
2019-02-14T06:20:19.561Z,65.40
2019-02-14T06:22:22.474Z,65.50
2019-02-14T06:24:26.151Z,65.60
2019-02-14T06:26:30.595Z,65.50
2019-02-14T06:28:33.506Z,65.50
2019-02-14T06:30:36.418Z,65.50
2019-02-14T06:32:39.669Z,65.50
2019-02-14T06:34:42.574Z,65.60
2019-02-14T06:36:45.603Z,65.60
2019-02-14T06:38:49.302Z,65.80
2019-02-14T06:40:52.996Z,65.70
2019-02-14T06:42:56.695Z,65.80
2019-02-14T06:45:00.386Z,65.80
2019-02-14T06:47:04.793Z,65.70
2019-02-14T06:49:07.067Z,65.70
2019-02-14T06:51:10.015Z,65.70
2019-02-14T06:53:12.919Z,65.70
2019-02-14T06:55:16.414Z,65.80
2019-02-14T06:57:19.420Z,65.80
2019-02-14T06:59:23.095Z,65.90
2019-02-14T07:01:26.047Z,65.80
2019-02-14T07:03:28.954Z,65.80
2019-02-14T07:05:31.886Z,65.90
2019-02-14T07:07:34.795Z,65.90
2019-02-14T07:09:37.715Z,65.90
2019-02-14T07:11:40.666Z,65.90
2019-02-14T07:13:43.596Z,66.00
2019-02-14T07:15:46.527Z,66.00
2019-02-14T07:17:49.455Z,66.00
2019-02-14T07:19:53.259Z,66.20
2019-02-14T07:21:56.944Z,66.20
2019-02-14T07:23:59.879Z,66.10
2019-02-14T07:26:02.786Z,66.00
2019-02-14T07:28:05.804Z,66.00
2019-02-14T07:30:16.144Z,66.90
2019-02-14T07:32:19.062Z,66.10
2019-02-14T07:34:21.993Z,66.00
2019-02-14T07:36:24.895Z,66.10
2019-02-14T07:38:27.802Z,66.10
2019-02-14T07:40:30.770Z,66.10
2019-02-14T07:42:34.468Z,66.30
2019-02-14T07:44:38.134Z,66.30
2019-02-14T07:46:41.082Z,66.20
2019-02-14T07:48:44.004Z,66.30
2019-02-14T07:50:47.022Z,66.30
2019-02-14T07:52:50.740Z,66.40
2019-02-14T07:54:53.666Z,66.30
2019-02-14T07:56:56.578Z,66.30
2019-02-14T07:59:00.911Z,66.50
2019-02-14T08:01:03.849Z,66.50
2019-02-14T08:03:06.791Z,66.40
2019-02-14T08:05:09.717Z,66.50
2019-02-14T08:07:12.724Z,66.60
2019-02-14T08:09:16.013Z,66.60
2019-02-14T08:11:19.686Z,66.80
2019-02-14T08:13:22.696Z,66.70
2019-02-14T08:15:26.498Z,66.80
2019-02-14T08:17:30.938Z,66.90
2019-02-14T08:19:33.850Z,66.80
2019-02-14T08:21:36.803Z,66.90
2019-02-14T08:23:39.714Z,67.60
2019-02-14T08:25:42.622Z,66.90
2019-02-14T08:27:45.575Z,67.00
2019-02-14T08:29:48.487Z,67.10
2019-02-14T08:31:51.402Z,67.20
2019-02-14T08:33:54.797Z,67.20
2019-02-14T08:35:57.835Z,67.30
2019-02-14T08:38:02.260Z,67.40
2019-02-14T08:40:06.018Z,67.40
2019-02-14T08:42:08.945Z,67.50
2019-02-14T08:44:11.948Z,67.50
2019-02-14T08:46:15.648Z,67.60
2019-02-14T08:48:18.672Z,67.60
2019-02-14T08:50:22.461Z,67.80
2019-02-14T08:52:25.394Z,67.70
2019-02-14T08:54:28.318Z,67.80
2019-02-14T08:56:31.260Z,67.90
2019-02-14T08:58:34.198Z,68.20
2019-02-14T09:00:37.115Z,68.20
2019-02-14T09:02:40.105Z,68.30
2019-02-14T09:04:43.027Z,68.30
2019-02-14T09:06:45.939Z,68.30
2019-02-14T09:08:48.907Z,68.40
2019-02-14T09:10:51.960Z,68.30
2019-02-14T09:12:55.646Z,68.20
2019-02-14T09:14:59.389Z,68.30
2019-02-14T09:17:02.287Z,68.30
2019-02-14T09:19:06.232Z,68.30
2019-02-14T09:21:09.945Z,67.60
2019-02-14T09:23:14.717Z,67.50
2019-02-14T09:25:16.738Z,67.50
2019-02-14T09:27:20.416Z,67.80
2019-02-14T09:29:24.108Z,68.30
2019-02-14T09:31:27.060Z,67.90
2019-02-14T09:33:29.977Z,67.90
2019-02-14T09:35:32.978Z,67.90
2019-02-14T09:37:36.781Z,68.00
2019-02-14T09:39:41.070Z,68.00
2019-02-14T09:41:43.372Z,67.90
2019-02-14T09:43:46.311Z,67.90
2019-02-14T09:45:49.227Z,67.90
2019-02-14T09:47:53.940Z,67.70
2019-02-14T09:49:55.232Z,67.70
2019-02-14T09:51:58.142Z,67.60
2019-02-14T09:54:01.093Z,67.50
2019-02-14T09:56:04.054Z,67.40
2019-02-14T09:58:06.974Z,67.30
2019-02-14T10:00:15.537Z,67.30
2019-02-14T10:02:19.220Z,67.20
2019-02-14T10:04:22.938Z,67.80
2019-02-14T10:06:26.642Z,67.00
2019-02-14T10:08:29.559Z,67.00
2019-02-14T10:10:32.477Z,66.80
2019-02-14T10:12:35.799Z,66.70
2019-02-14T10:14:38.707Z,66.60
2019-02-14T10:16:41.646Z,66.40
2019-02-14T10:18:44.866Z,66.30
2019-02-14T10:20:47.786Z,66.10
2019-02-14T10:22:50.736Z,66.00
2019-02-14T10:24:53.799Z,65.80
2019-02-14T10:26:56.735Z,65.80
2019-02-14T10:28:59.668Z,65.60
2019-02-14T10:31:03.472Z,65.30
2019-02-14T10:33:06.386Z,65.30
2019-02-14T10:35:09.422Z,65.20
2019-02-14T10:37:13.341Z,65.00
2019-02-14T10:39:16.387Z,64.90
2019-02-14T10:41:19.302Z,64.80
2019-02-14T10:43:22.249Z,64.80
2019-02-14T10:45:25.166Z,64.60
2019-02-14T10:47:28.102Z,64.60
2019-02-14T10:49:31.035Z,64.50
2019-02-14T10:51:33.951Z,64.40
2019-02-14T10:53:37.542Z,64.30
2019-02-14T10:55:41.262Z,64.10
2019-02-14T10:57:44.178Z,64.00
2019-02-14T10:59:47.894Z,63.90
2019-02-14T11:01:50.821Z,63.80
2019-02-14T11:03:53.841Z,63.70
2019-02-14T11:05:57.593Z,64.40
2019-02-14T11:08:00.511Z,64.30
2019-02-14T11:10:04.207Z,65.50
2019-02-14T11:12:07.191Z,65.50
2019-02-14T11:14:10.112Z,65.70
2019-02-14T11:16:13.035Z,65.60
2019-02-14T11:18:15.995Z,65.30
2019-02-14T11:20:19.726Z,65.80
2019-02-14T11:22:22.737Z,65.00
2019-02-14T11:24:26.538Z,65.10
2019-02-14T11:26:30.348Z,65.10
2019-02-14T11:28:33.272Z,65.10
2019-02-14T11:30:36.218Z,65.10
2019-02-14T11:32:39.143Z,64.90
2019-02-14T11:34:42.172Z,64.40
2019-02-14T11:36:45.890Z,63.80
2019-02-14T11:38:48.818Z,63.70
2019-02-14T11:40:51.745Z,63.50
2019-02-14T11:42:55.536Z,63.50
2019-02-14T11:44:59.237Z,63.60
2019-02-14T11:47:02.921Z,63.50
2019-02-14T11:49:06.711Z,63.60
2019-02-14T11:51:09.639Z,63.30
2019-02-14T11:53:14.221Z,63.20
2019-02-14T11:55:15.604Z,63.30
2019-02-14T11:57:18.519Z,63.30
2019-02-14T11:59:21.437Z,63.00
2019-02-14T12:01:24.432Z,63.10
2019-02-14T12:03:28.215Z,63.00
2019-02-14T12:05:31.176Z,63.00
2019-02-14T12:07:34.099Z,62.30
2019-02-14T12:09:37.778Z,62.70
2019-02-14T12:11:41.603Z,62.30
2019-02-14T12:13:45.290Z,62.30
2019-02-14T12:15:48.970Z,62.20
2019-02-14T12:17:51.938Z,62.10
2019-02-14T12:19:54.971Z,62.00
2019-02-14T12:21:58.646Z,61.90
2019-02-14T12:24:02.795Z,61.60
2019-02-14T12:26:05.933Z,61.50
2019-02-14T12:28:08.806Z,61.10
2019-02-14T12:30:13.275Z,60.60
2019-02-14T12:32:16.219Z,60.50
2019-02-14T12:34:19.160Z,60.70
2019-02-14T12:36:22.151Z,61.10
2019-02-14T12:38:25.068Z,60.90
2019-02-14T12:40:27.987Z,60.70
2019-02-14T12:42:31.819Z,60.20
2019-02-14T12:44:34.760Z,60.20
2019-02-14T12:46:38.458Z,59.90
2019-02-14T12:48:41.423Z,59.80
2019-02-14T12:50:45.119Z,59.90
2019-02-14T12:52:49.368Z,60.10
2019-02-14T12:54:52.299Z,60.10
2019-02-14T12:56:55.239Z,60.00
2019-02-14T12:58:58.185Z,60.00
2019-02-14T13:01:02.615Z,59.60
2019-02-14T13:03:05.552Z,59.60
2019-02-14T13:05:08.791Z,59.40
2019-02-14T13:07:11.722Z,59.10
2019-02-14T13:09:20.088Z,58.90
2019-02-14T13:11:18.473Z,58.90
2019-02-14T13:13:21.403Z,58.80
2019-02-14T13:15:25.084Z,59.00
2019-02-14T13:17:29.346Z,58.60
2019-02-14T13:19:33.047Z,58.50
2019-02-14T13:21:36.733Z,58.40
2019-02-14T13:23:39.832Z,58.30
2019-02-14T13:25:43.522Z,58.00
2019-02-14T13:27:47.662Z,57.90
2019-02-14T13:29:50.588Z,57.80
2019-02-14T13:31:53.533Z,57.50
2019-02-14T13:33:56.479Z,57.30
2019-02-14T13:36:00.166Z,57.10
2019-02-14T13:38:03.095Z,57.10
2019-02-14T13:40:06.056Z,57.00
2019-02-14T13:42:09.856Z,56.60
2019-02-14T13:44:12.791Z,56.50
2019-02-14T13:46:15.964Z,56.30
2019-02-14T13:48:18.902Z,55.40
2019-02-14T13:50:21.834Z,55.30
2019-02-14T13:52:25.652Z,55.20
2019-02-14T13:54:28.579Z,55.10
2019-02-14T13:56:31.512Z,54.60
2019-02-14T13:58:34.485Z,54.40
2019-02-14T14:00:37.417Z,54.60
2019-02-14T14:02:40.356Z,54.70
2019-02-14T14:04:44.864Z,54.90
2019-02-14T14:06:46.469Z,54.90
2019-02-14T14:08:49.401Z,55.10
2019-02-14T14:10:52.387Z,55.20
2019-02-14T14:12:55.423Z,55.10
2019-02-14T14:14:58.730Z,55.00
2019-02-14T14:17:01.650Z,54.80
2019-02-14T14:19:06.408Z,54.60
2019-02-14T14:21:07.578Z,54.50
2019-02-14T14:23:11.342Z,54.10
2019-02-14T14:25:15.044Z,53.70
2019-02-14T14:27:18.763Z,54.40
2019-02-14T14:29:21.695Z,53.70
2019-02-14T14:31:24.735Z,54.10
2019-02-14T14:33:27.979Z,54.20
2019-02-14T14:35:30.939Z,54.70
2019-02-14T14:37:34.064Z,54.90
2019-02-14T14:39:37.820Z,54.10
2019-02-14T14:41:40.801Z,54.10
2019-02-14T14:43:43.753Z,53.50
2019-02-14T14:45:47.578Z,53.10
2019-02-14T14:47:50.552Z,53.70
2019-02-14T14:49:53.504Z,52.80
2019-02-14T14:51:57.277Z,52.60
2019-02-14T14:54:00.302Z,52.40
2019-02-14T14:56:04.106Z,52.00
2019-02-14T14:58:07.909Z,51.80
2019-02-14T15:00:11.714Z,51.80
2019-02-14T15:02:14.638Z,51.70
2019-02-14T15:04:18.087Z,51.60
2019-02-14T15:06:21.791Z,51.50
2019-02-14T15:08:24.723Z,51.50
2019-02-14T15:10:27.715Z,51.40
2019-02-14T15:12:30.646Z,51.10
2019-02-14T15:14:33.810Z,51.10
2019-02-14T15:16:36.836Z,51.10
2019-02-14T15:18:39.794Z,51.00
2019-02-14T15:20:43.463Z,51.60
2019-02-14T15:22:46.469Z,51.00
2019-02-14T15:24:50.154Z,51.30
2019-02-14T15:26:53.990Z,50.40
2019-02-14T15:28:57.056Z,50.50
2019-02-14T15:31:00.755Z,50.70
2019-02-14T15:33:04.577Z,50.80
2019-02-14T15:35:07.505Z,50.70
2019-02-14T15:37:10.455Z,50.80
2019-02-14T15:39:13.513Z,50.70
2019-02-14T15:41:17.310Z,50.30
2019-02-14T15:43:21.012Z,50.20
2019-02-14T15:45:24.027Z,50.20
2019-02-14T15:47:26.981Z,50.80
2019-02-14T15:49:29.929Z,50.30
2019-02-14T15:51:33.663Z,50.30
2019-02-14T15:53:36.600Z,50.50
2019-02-14T15:55:41.140Z,50.60
2019-02-14T15:57:44.759Z,50.50
2019-02-14T15:59:45.987Z,50.60
2019-02-14T16:01:49.687Z,50.40
2019-02-14T16:03:53.504Z,50.30
2019-02-14T16:05:56.451Z,50.30
2019-02-14T16:08:00.943Z,50.10
2019-02-14T16:10:03.717Z,50.20
2019-02-14T16:12:06.020Z,50.30
2019-02-14T16:14:10.486Z,50.30
2019-02-14T16:16:13.553Z,50.20
2019-02-14T16:18:17.353Z,50.90
2019-02-14T16:20:21.078Z,51.60
2019-02-14T16:22:29.835Z,51.50
2019-02-14T16:24:27.178Z,51.80
2019-02-14T16:26:30.331Z,51.50
2019-02-14T16:28:33.251Z,51.80
2019-02-14T16:30:36.198Z,52.30
2019-02-14T16:32:40.078Z,53.20
2019-02-14T16:34:43.767Z,53.50
2019-02-14T16:36:46.681Z,53.40
2019-02-14T16:38:50.347Z,53.60
2019-02-14T16:40:54.748Z,53.40
2019-02-14T16:42:57.679Z,53.30
2019-02-14T16:45:00.625Z,53.60
2019-02-14T16:47:04.730Z,53.30
2019-02-14T16:49:08.651Z,53.20
2019-02-14T16:51:11.661Z,53.10
2019-02-14T16:53:14.593Z,53.30
2019-02-14T16:55:17.555Z,53.00
2019-02-14T16:57:20.584Z,53.00
2019-02-14T16:59:23.514Z,53.40
2019-02-14T17:01:26.471Z,53.70
2019-02-14T17:03:29.402Z,53.90
2019-02-14T17:05:32.517Z,54.30
2019-02-14T17:07:36.258Z,54.70
2019-02-14T17:09:39.304Z,54.60
2019-02-14T17:11:43.131Z,54.50
2019-02-14T17:13:46.079Z,54.60
2019-02-14T17:15:49.890Z,54.10
2019-02-14T17:17:52.859Z,54.90
2019-02-14T17:19:56.555Z,54.70
2019-02-14T17:21:59.483Z,54.70
2019-02-14T17:24:02.431Z,54.60
2019-02-14T17:26:05.367Z,54.60
2019-02-14T17:28:08.324Z,54.80
2019-02-14T17:30:11.258Z,54.90
2019-02-14T17:32:14.170Z,54.80
2019-02-14T17:34:17.131Z,54.60
2019-02-14T17:36:20.815Z,55.00
2019-02-14T17:38:23.739Z,54.20
2019-02-14T17:40:26.835Z,54.20
2019-02-14T17:42:29.759Z,54.00
2019-02-14T17:44:32.688Z,53.90
2019-02-14T17:46:35.696Z,53.90
2019-02-14T17:48:38.644Z,53.90
2019-02-14T17:50:41.830Z,53.90
2019-02-14T17:52:45.550Z,53.70
2019-02-14T17:54:48.474Z,53.70
2019-02-14T17:56:51.404Z,53.80
2019-02-14T17:58:54.496Z,54.10
2019-02-14T18:00:57.457Z,54.20
2019-02-14T18:03:01.183Z,54.50
2019-02-14T18:05:04.100Z,54.40
2019-02-14T18:07:07.044Z,54.60
2019-02-14T18:09:10.011Z,54.60
2019-02-14T18:11:13.682Z,54.80
2019-02-14T18:13:16.600Z,54.70
2019-02-14T18:15:20.629Z,54.90
2019-02-14T18:17:23.550Z,54.80
2019-02-14T18:19:27.249Z,54.60
2019-02-14T18:21:30.235Z,54.50
2019-02-14T18:23:33.208Z,54.60
2019-02-14T18:25:36.244Z,54.70
2019-02-14T18:27:39.175Z,54.70
2019-02-14T18:29:42.123Z,54.80
2019-02-14T18:31:45.066Z,54.80
2019-02-14T18:33:48.754Z,54.90
2019-02-14T18:35:53.294Z,54.80
2019-02-14T18:37:57.096Z,54.80
2019-02-14T18:40:00.769Z,54.80
2019-02-14T18:42:04.467Z,54.80
2019-02-14T18:44:07.403Z,54.70
2019-02-14T18:46:10.461Z,54.70
2019-02-14T18:48:14.675Z,54.80
2019-02-14T18:50:18.383Z,54.90
2019-02-14T18:52:21.357Z,54.80
2019-02-14T18:54:25.105Z,55.10
2019-02-14T18:56:28.040Z,55.00
2019-02-14T18:58:31.842Z,55.20
2019-02-14T19:00:35.645Z,55.40
2019-02-14T19:02:39.464Z,55.50
2019-02-14T19:04:42.387Z,55.40
2019-02-14T19:06:45.335Z,55.60
2019-02-14T19:08:48.271Z,55.80
2019-02-14T19:10:51.193Z,55.90
2019-02-14T19:12:54.161Z,56.00
2019-02-14T19:14:57.097Z,56.00
2019-02-14T19:17:00.083Z,56.10
2019-02-14T19:19:03.041Z,56.10
2019-02-14T19:21:05.951Z,56.20
2019-02-14T19:23:09.996Z,56.30
2019-02-14T19:25:13.801Z,56.50
2019-02-14T19:27:16.807Z,56.40
2019-02-14T19:29:19.726Z,56.60
2019-02-14T19:31:22.675Z,56.70
2019-02-14T19:33:25.595Z,56.80
2019-02-14T19:35:28.545Z,57.00
2019-02-14T19:37:31.592Z,57.10
2019-02-14T19:39:35.327Z,57.20
2019-02-14T19:41:38.255Z,57.20
2019-02-14T19:43:41.195Z,57.30
2019-02-14T19:45:44.137Z,57.40
2019-02-14T19:47:47.110Z,57.40
2019-02-14T19:49:50.801Z,57.70
2019-02-14T19:51:55.345Z,57.70
2019-02-14T19:53:58.295Z,57.70
2019-02-14T19:56:01.239Z,57.70
2019-02-14T19:58:04.167Z,57.70
2019-02-14T20:00:12.740Z,57.70
2019-02-14T20:02:15.785Z,57.70
2019-02-14T20:04:19.587Z,57.70
2019-02-14T20:06:24.131Z,57.70
2019-02-14T20:08:27.055Z,57.60
2019-02-14T20:10:30.076Z,57.80
2019-02-14T20:12:33.891Z,57.90
2019-02-14T20:14:36.810Z,57.90
2019-02-14T20:16:39.740Z,58.00
2019-02-14T20:18:42.758Z,58.10
2019-02-14T20:20:45.676Z,58.20
2019-02-14T20:22:48.807Z,58.40
2019-02-14T20:24:51.755Z,58.40
2019-02-14T20:26:54.670Z,58.50
2019-02-14T20:28:57.616Z,58.50
2019-02-14T20:31:00.528Z,58.50
2019-02-14T20:33:05.123Z,58.80
2019-02-14T20:35:07.201Z,58.80
2019-02-14T20:37:10.876Z,59.00
2019-02-14T20:39:14.805Z,59.00
2019-02-14T20:41:18.487Z,59.10
2019-02-14T20:43:22.184Z,59.30
2019-02-14T20:45:25.919Z,59.40
2019-02-14T20:47:28.842Z,59.20
2019-02-14T20:49:31.771Z,59.40
2019-02-14T20:51:38.445Z,59.60
2019-02-14T20:53:38.521Z,59.60
2019-02-14T20:55:41.430Z,59.70
2019-02-14T20:57:44.523Z,59.70
2019-02-14T20:59:48.223Z,59.80
2019-02-14T21:01:51.903Z,59.80
2019-02-14T21:03:54.862Z,59.80
2019-02-14T21:05:57.784Z,59.80
2019-02-14T21:08:01.484Z,60.00
2019-02-14T21:10:05.306Z,60.10
2019-02-14T21:12:08.251Z,60.10
2019-02-14T21:14:11.162Z,60.20
2019-02-14T21:16:14.106Z,60.40
2019-02-14T21:18:17.032Z,60.40
2019-02-14T21:20:19.967Z,60.50
2019-02-14T21:22:22.904Z,60.60
2019-02-14T21:24:25.830Z,60.60
2019-02-14T21:26:28.761Z,60.70
2019-02-14T21:28:31.704Z,60.70
2019-02-14T21:30:36.191Z,60.70
2019-02-14T21:32:38.392Z,61.50
2019-02-14T21:34:42.218Z,60.80
2019-02-14T21:36:45.608Z,60.80
2019-02-14T21:38:49.390Z,61.00
2019-02-14T21:40:52.340Z,60.90
2019-02-14T21:42:56.060Z,61.00
2019-02-14T21:44:58.990Z,61.10
2019-02-14T21:47:02.055Z,61.10
2019-02-14T21:49:05.826Z,61.20
2019-02-14T21:51:08.680Z,61.10
2019-02-14T21:53:11.631Z,61.10
2019-02-14T21:55:14.628Z,61.10
2019-02-14T21:57:18.283Z,61.30
2019-02-14T21:59:22.018Z,62.20
2019-02-14T22:01:24.968Z,61.20
2019-02-14T22:03:28.674Z,61.20
2019-02-14T22:05:32.518Z,61.20
2019-02-14T22:07:36.407Z,61.10
2019-02-14T22:09:39.351Z,61.10
2019-02-14T22:11:43.078Z,60.40
2019-02-14T22:13:46.755Z,60.60
2019-02-14T22:15:50.457Z,60.80
2019-02-14T22:17:54.202Z,60.90
2019-02-14T22:19:57.179Z,60.80
2019-02-14T22:22:00.106Z,60.90
2019-02-14T22:24:03.429Z,61.00
2019-02-14T22:26:07.117Z,61.90
2019-02-14T22:28:10.798Z,61.20
2019-02-14T22:30:15.742Z,61.00
2019-02-14T22:32:18.649Z,61.00
2019-02-14T22:34:22.342Z,61.10
2019-02-14T22:36:26.053Z,61.20
2019-02-14T22:38:28.964Z,61.10
2019-02-14T22:40:31.878Z,61.10
2019-02-14T22:42:35.046Z,61.20
2019-02-14T22:44:37.972Z,61.20
2019-02-14T22:46:41.669Z,61.20
2019-02-14T22:48:45.479Z,61.20
2019-02-14T22:50:49.750Z,61.30
2019-02-14T22:52:52.783Z,61.20
2019-02-14T22:54:55.699Z,61.30
2019-02-14T22:56:58.606Z,61.20
2019-02-14T22:59:03.264Z,61.40
2019-02-14T23:01:07.246Z,61.30
2019-02-14T23:03:10.202Z,61.40
2019-02-14T23:05:14.218Z,61.30
2019-02-14T23:07:17.130Z,61.30
2019-02-14T23:09:21.483Z,62.20
2019-02-14T23:11:24.452Z,61.40
2019-02-14T23:13:27.377Z,61.30
2019-02-14T23:15:30.306Z,61.40
2019-02-14T23:17:33.254Z,61.50
2019-02-14T23:19:36.168Z,61.50
2019-02-14T23:21:39.850Z,61.50
2019-02-14T23:23:42.778Z,61.50
2019-02-14T23:25:45.705Z,61.60
2019-02-14T23:27:49.389Z,62.50
2019-02-14T23:29:52.344Z,61.60
2019-02-14T23:31:55.262Z,61.60
2019-02-14T23:33:58.171Z,61.70
2019-02-14T23:36:01.130Z,61.70
2019-02-14T23:38:04.044Z,61.70
2019-02-14T23:40:07.784Z,61.70
2019-02-14T23:42:10.669Z,61.70
2019-02-14T23:44:13.593Z,61.80
2019-02-14T23:46:17.497Z,61.90
2019-02-14T23:48:21.175Z,62.00
2019-02-14T23:50:24.966Z,62.10
2019-02-14T23:52:27.903Z,62.10
2019-02-14T23:54:30.837Z,62.10
2019-02-14T23:56:33.849Z,62.00
2019-02-14T23:58:37.651Z,62.80
